Terminal Aerodrome Forecast
Issued by NWS Austin/San Antonio, TX

Home | Current Version | Previous Version | Text Only | Print | Product List | Glossary On
Versions: 1 2 3 4 5 6 7 8 9 10 11 12 13 14 15 16 17 18 19 20 21 22 23 24
000
FTUS44 KEWX 272333
TAFAUS
TAF
KAUS 272333Z 2800/0106 17009KT P6SM BKN035
     FM280400 18007KT P6SM OVC015
     FM280600 18008KT P6SM OVC009
     FM280900 18008KT 1SM BR OVC004
     FM281800 19012KT P6SM OVC015
     FM282000 19014KT P6SM BKN040=

USA.gov is the U.S. government's official web portal to all federal, state and local government web resources and services.